Аэропорт: Угольный. Анадырь

ICAO: UHMA

METAR:
2022-01-28 08:00:00
UHMA 280800Z 29003MPS CAVOK M17/M19 Q1031 R01/////// NOSIG RMK TDZ R01/29003G04MPS END R01/04004G06MPS QFE769/1026
METAR:
2022-01-28 04:47:00
TAF UHMA 280447Z 2806/2906 08007G14MPS 9999 DRSN SCT015 TEMPO 2806/2906 03003G10MPS 1100 -SN BR BKN004 BKN015